Cando, North Dakota
Current Conditions -  °F | °C
As of 4:35 PM on Wednesday 26 Nov 2014 (Local Time) from K9D7 Reporting Station
Clear Clear  
Wind Chill:   Ceiling: Unl
Heat Index:   Visibility: 10mi
Dew Point: -8°   Wind: 3mph
Humidity: 72%   Direction: 330°NNW
Pressure: 30.46"   Gusts: NA
Location:  48.49°N, 99.21°W
Report Text: K9D7 262235Z AUTO 33003KT 10SM CLR M18/M22 A3046 RMK AO2
Loading
Personal Weather Stations






























Interactive Weather Map New forecast layout! Learn more

10-Day Weather Forecast

Advertisements
Track Severe Weather on mobile